KDUG/DUG METAR and TAF weather

Enter ICAO airport designator
Station Type Date Time Source
KDUG METAR 2018/12/10 16:56 UTC NOAA

KDUG 101656Z AUTO 33006KT 10SM CLR 09/03 A3031 RMK AO2 SLP247 T00890033


Station Type Date Time Source
KDUG Decoded METAR 2018/12/10 16:56 UTC NOAA

BISBEE DOUGLAS INTERNATIONAL AIRPORT , AZ, United States (KDUG) 31-28N 109-36W
Dec 10, 2018 - 11:56 AM EST / 2018.12.10 1656 UTC
Wind: from the NNW (330 degrees) at 7 MPH (6 KT):0
Visibility: 10 mile(s):0
Sky conditions: clear
Temperature: 48.0 F (8.9 C)
Dew Point: 37.9 F (3.3 C)
Relative Humidity: 67%
Pressure (altimeter): 30.31 in. Hg (1026 hPa)
ob: KDUG 101656Z AUTO 33006KT 10SM CLR 09/03 A3031 RMK AO2 SLP247 T00890033
cycle: 17

Station Type Date Time Source
KDUG TAF 2018/12/10 18:22 UTC NOAA

TAF KDUG 101720Z 1018/1118 10007KT P6SM BKN150
FM110400 14006KT P6SM BKN140


Example: see airport list